Amana, Iowa
Current Conditions -  °F | °C
As of 1:52 PM on Wednesday 28 Jan 2015 (Local Time) from KCID Reporting Station
Broken Clouds Broken Clouds  
Wind Chill: -2°   Ceiling: 1800
Heat Index:   Visibility: 8mi
Dew Point: -1°   Wind: 16mph
Humidity: 76%   Direction: 140°SE
Pressure: 29.88"   Gusts: 25mph
Location:  41.8°N, 91.87°W
Report Text: KCID 281952Z 14014G22KT 8SM BKN018 03/M01 A2988 RMK AO2 SLP126 T00331006
Loading
Personal Weather Stations






























Interactive Weather Map New forecast layout! Learn more

10-Day Weather Forecast

Advertisements
Track Severe Weather on mobile